Time;durP1;ratioP1;P1;durP2;ratioP2;P2;SDS_P1;SDS_P2;PMS_P1;PMS_P2;Temp;Humidity;BMP_temperature;BMP_pressure;BME280_temperature;BME280_humidity;BME280_pressure;Samples;Min_cycle;Max_cycle;Signal;HPM_P1;HPM_P2
2021/12/18 00:01:57;;;;;;;8.90;3.07;;;;;;;2.86;100.00;102897.41;5080064;28;20201;-73
2021/12/18 00:04:23;;;;;;;4.60;2.80;;;;;;;2.86;100.00;102894.81;5082023;28;20309;-73
2021/12/18 00:06:50;;;;;;;6.60;3.17;;;;;;;2.86;100.00;102894.81;5083113;28;20212;-73
2021/12/18 00:09:16;;;;;;;5.63;3.33;;;;;;;2.86;100.00;102888.78;5084260;28;20206;-72
2021/12/18 00:11:43;;;;;;;5.63;3.63;;;;;;;2.85;100.00;102890.50;5082846;28;20575;-73
2021/12/18 00:14:09;;;;;;;7.70;3.33;;;;;;;2.84;100.00;102887.03;5087893;28;20197;-73
2021/12/18 00:16:36;;;;;;;7.27;3.10;;;;;;;2.83;100.00;102890.44;5085592;28;20226;-73
2021/12/18 00:19:04;;;;;;;7.80;4.13;;;;;;;2.84;100.00;102893.88;5096065;28;20209;-73
2021/12/18 00:21:31;;;;;;;8.20;4.03;;;;;;;2.83;100.00;102887.84;5094175;28;20190;-73
2021/12/18 00:23:57;;;;;;;6.27;3.90;;;;;;;2.82;100.00;102887.78;5091478;28;20206;-72
2021/12/18 00:26:23;;;;;;;7.80;3.70;;;;;;;2.81;100.00;102878.28;5091553;28;20190;-73
2021/12/18 00:28:50;;;;;;;7.33;3.70;;;;;;;2.81;100.00;102883.44;5086546;28;20209;-73
2021/12/18 00:31:17;;;;;;;13.37;3.90;;;;;;;2.81;100.00;102886.91;5091549;28;20225;-73
2021/12/18 00:33:43;;;;;;;6.10;3.60;;;;;;;2.82;100.00;102887.78;5098949;28;20202;-73
2021/12/18 00:36:11;;;;;;;8.83;4.20;;;;;;;2.82;100.00;102890.38;5104024;28;20206;-73
2021/12/18 00:38:39;;;;;;;10.00;3.63;;;;;;;2.81;100.00;102896.31;5097112;28;20611;-72
2021/12/18 00:41:34;;;;;;;7.57;4.90;;;;;;;2.80;100.00;102898.03;5092935;28;20217;-73
2021/12/18 00:44:04;;;;;;;9.40;4.10;;;;;;;2.81;100.00;102906.63;5085145;28;20206;-73
2021/12/18 00:46:32;;;;;;;11.93;4.13;;;;;;;2.82;100.00;102910.97;5091712;28;20938;-73
2021/12/18 00:48:59;;;;;;;13.07;4.70;;;;;;;2.81;100.00;102915.25;5082425;28;20198;-73
2021/12/18 00:51:27;;;;;;;10.07;4.60;;;;;;;2.81;100.00;102911.78;5090661;28;20221;-72
2021/12/18 00:53:53;;;;;;;7.50;4.40;;;;;;;2.81;100.00;102910.09;5102132;28;20194;-72
2021/12/18 00:56:21;;;;;;;11.97;4.50;;;;;;;2.82;100.00;102905.81;5090380;28;20590;-73
2021/12/18 00:58:49;;;;;;;10.40;4.50;;;;;;;2.82;100.00;102891.22;5090638;28;20253;-73
2021/12/18 01:01:16;;;;;;;7.57;4.10;;;;;;;2.81;100.00;102891.16;5094992;28;20224;-72
2021/12/18 01:03:43;;;;;;;11.20;4.23;;;;;;;2.80;100.00;102902.31;5088237;28;20826;-72
2021/12/18 01:06:10;;;;;;;7.93;3.53;;;;;;;2.78;100.00;102902.25;5093604;28;20402;-73
2021/12/18 01:08:38;;;;;;;10.97;4.30;;;;;;;2.79;100.00;102890.22;5086837;28;20726;-73
2021/12/18 01:11:25;;;;;;;11.33;4.93;;;;;;;2.78;100.00;102888.44;5093239;28;20215;-72
2021/12/18 01:14:06;;;;;;;6.77;4.70;;;;;;;2.80;100.00;102887.72;5103274;28;20210;-73
2021/12/18 01:16:42;;;;;;;9.07;4.40;;;;;;;2.80;100.00;102886.84;5099503;28;20308;-72
2021/12/18 01:24:46;;;;;;;8.63;4.70;;;;;;;2.76;100.00;102892.66;5055370;28;20554;-73
2021/12/18 01:27:12;;;;;;;8.37;4.83;;;;;;;2.76;100.00;102890.09;5092709;28;20205;-73
2021/12/18 01:29:39;;;;;;;7.30;4.80;;;;;;;2.76;100.00;102884.94;5095631;28;20210;-73
2021/12/18 01:32:07;;;;;;;9.60;4.83;;;;;;;2.77;100.00;102886.72;5097304;28;20211;-72
2021/12/18 01:34:33;;;;;;;9.07;4.80;;;;;;;2.77;100.00;102885.00;5088250;28;20285;-72
2021/12/18 01:37:00;;;;;;;11.50;5.33;;;;;;;2.76;100.00;102880.69;5088321;28;20824;-71
2021/12/18 01:39:26;;;;;;;12.17;5.13;;;;;;;2.76;100.00;102877.22;5088560;28;20213;-73
2021/12/18 01:42:12;;;;;;;9.03;4.60;;;;;;;2.75;100.00;102871.19;5084293;28;20200;-73
2021/12/18 01:44:57;;;;;;;10.10;5.13;;;;;;;2.76;100.00;102874.63;5097294;28;20732;-73
2021/12/18 01:52:54;;;;;;;10.27;5.20;;;;;;;2.76;100.00;102878.13;5092328;28;20230;-73
2021/12/18 01:55:21;;;;;;;11.30;5.67;;;;;;;2.76;100.00;102874.63;5094281;28;20225;-73
2021/12/18 01:57:49;;;;;;;9.53;4.97;;;;;;;2.75;100.00;102866.03;5098715;28;20193;-73
2021/12/18 02:00:17;;;;;;;11.03;5.37;;;;;;;2.76;100.00;102872.06;5091578;28;20223;-73
2021/12/18 02:02:43;;;;;;;10.47;5.60;;;;;;;2.76;100.00;102872.06;5090784;28;20202;-72
2021/12/18 02:05:11;;;;;;;9.67;5.50;;;;;;;2.76;100.00;102874.63;5090635;28;20207;-73
2021/12/18 02:07:40;;;;;;;9.70;5.43;;;;;;;2.76;100.00;102879.78;5091295;28;20202;-73
2021/12/18 02:10:10;;;;;;;12.33;5.97;;;;;;;2.76;100.00;102880.69;5094090;28;20313;-73
2021/12/18 02:12:45;;;;;;;8.33;5.47;;;;;;;2.76;100.00;102882.38;5084822;28;20632;-72
2021/12/18 02:20:45;;;;;;;7.33;5.17;;;;;;;2.76;100.00;102884.94;5091933;28;20222;-72
2021/12/18 02:23:12;;;;;;;12.77;6.47;;;;;;;2.76;100.00;102888.41;5084355;28;20194;-73
2021/12/18 02:25:40;;;;;;;11.33;5.33;;;;;;;2.76;100.00;102887.50;5090340;28;20239;-73
2021/12/18 02:28:15;;;;;;;9.50;5.43;;;;;;;2.78;100.00;102891.03;5086585;28;20197;-73
2021/12/18 02:30:42;;;;;;;9.53;5.23;;;;;;;2.76;100.00;102880.69;5085492;28;20612;-73
2021/12/18 02:33:08;;;;;;;8.50;5.00;;;;;;;2.76;100.00;102878.13;5098269;28;20289;-72
2021/12/18 02:35:42;;;;;;;9.30;5.50;;;;;;;2.76;100.00;102880.69;5089280;28;20424;-73
2021/12/18 02:38:13;;;;;;;7.77;4.70;;;;;;;2.75;100.00;102870.31;5093040;28;20190;-73
2021/12/18 02:40:59;;;;;;;11.23;5.07;;;;;;;2.74;100.00;102871.13;5081370;28;20259;-73
2021/12/18 02:43:26;;;;;;;6.80;4.80;;;;;;;2.74;100.00;102869.41;5091220;28;20192;-72
2021/12/18 02:45:55;;;;;;;11.43;4.67;;;;;;;2.73;100.00;102864.22;5100970;28;20194;-73
2021/12/18 02:48:22;;;;;;;7.50;5.37;;;;;;;2.74;100.00;102869.41;5087794;28;20205;-73
2021/12/18 02:50:49;;;;;;;9.40;5.40;;;;;;;2.73;100.00;102870.25;5090840;28;20217;-73
2021/12/18 02:53:17;;;;;;;7.33;5.07;;;;;;;2.75;100.00;102870.31;5086043;28;20194;-73
2021/12/18 02:55:43;;;;;;;9.77;5.10;;;;;;;2.74;100.00;102866.84;5088461;28;20229;-73
2021/12/18 02:58:09;;;;;;;10.20;5.47;;;;;;;2.74;100.00;102866.84;5098143;28;20193;-73
2021/12/18 03:00:36;;;;;;;6.80;4.43;;;;;;;2.75;100.00;102860.88;5091699;28;20714;-73
2021/12/18 03:03:07;;;;;;;9.97;4.97;;;;;;;2.75;100.00;102865.16;5093231;28;20246;-73
2021/12/18 03:05:40;;;;;;;10.93;5.20;;;;;;;2.75;100.00;102860.00;5096236;28;20670;-72
2021/12/18 03:08:13;;;;;;;10.77;5.37;;;;;;;2.74;100.00;102850.50;5083712;28;20281;-73
2021/12/18 03:22:33;;;;;;;10.13;4.60;;;;;;;2.69;100.00;102840.03;5034061;28;20338;-73
2021/12/18 03:24:58;;;;;;;8.30;4.87;;;;;;;2.70;100.00;102833.19;5085849;28;20221;-73
2021/12/18 03:27:25;;;;;;;7.40;4.30;;;;;;;2.71;100.00;102838.41;5098291;28;20238;-73
2021/12/18 03:29:52;;;;;;;9.50;4.90;;;;;;;2.71;100.00;102834.91;5098033;28;20219;-72
2021/12/18 03:32:19;;;;;;;9.77;4.60;;;;;;;2.70;100.00;102828.03;5095961;28;20201;-73
2021/12/18 03:34:46;;;;;;;11.13;4.70;;;;;;;2.70;100.00;102823.75;5096606;28;20205;-72
2021/12/18 03:37:13;;;;;;;8.07;4.10;;;;;;;2.70;100.00;102826.31;5097122;28;20205;-73
2021/12/18 03:39:39;;;;;;;9.53;4.80;;;;;;;2.69;100.00;102827.16;5096882;28;20271;-73
2021/12/18 03:42:06;;;;;;;11.07;4.17;;;;;;;2.68;100.00;102827.09;5089411;28;20220;-72
2021/12/18 03:44:35;;;;;;;11.97;4.80;;;;;;;2.68;100.00;102829.66;5086976;28;20190;-73
2021/12/18 03:47:02;;;;;;;7.80;4.60;;;;;;;2.67;100.00;102823.59;5095397;28;20205;-73
2021/12/18 03:49:28;;;;;;;9.83;4.50;;;;;;;2.66;100.00;102827.00;5096409;28;20223;-72
2021/12/18 03:51:55;;;;;;;10.17;4.87;;;;;;;2.68;100.00;102839.97;5098675;28;20205;-73
2021/12/18 03:54:21;;;;;;;13.10;4.70;;;;;;;2.67;100.00;102836.47;5089324;28;20202;-73
2021/12/18 03:56:47;;;;;;;9.80;4.13;;;;;;;2.66;100.00;102827.00;5095850;28;20544;-73
2021/12/18 03:59:14;;;;;;;7.80;4.30;;;;;;;2.65;100.00;102820.09;5088862;28;20571;-73
2021/12/18 04:01:41;;;;;;;8.40;4.17;;;;;;;2.63;100.00;102825.19;5090838;28;20296;-73
2021/12/18 04:04:08;;;;;;;11.47;4.07;;;;;;;2.65;100.00;102826.09;5091209;28;20204;-73
2021/12/18 04:06:37;;;;;;;9.57;4.37;;;;;;;2.65;100.00;102827.81;5088926;28;20202;-73
2021/12/18 04:09:04;;;;;;;8.77;4.60;;;;;;;2.65;100.00;102827.81;5089068;28;20207;-71
2021/12/18 04:11:30;;;;;;;8.27;4.13;;;;;;;2.65;100.00;102820.97;5085276;28;20229;-72
2021/12/18 04:13:57;;;;;;;7.83;4.00;;;;;;;2.64;100.00;102819.22;5092759;28;20745;-73
2021/12/18 04:16:23;;;;;;;8.30;4.20;;;;;;;2.66;100.00;102824.44;5094593;28;20205;-72
2021/12/18 04:18:51;;;;;;;14.50;4.77;;;;;;;2.66;100.00;102816.72;5090303;28;20194;-73
2021/12/18 04:21:18;;;;;;;9.00;4.37;;;;;;;2.67;100.00;102810.72;5097716;28;20216;-73
2021/12/18 04:23:45;;;;;;;8.63;4.67;;;;;;;2.68;100.00;102811.63;5095046;28;20212;-73
2021/12/18 04:26:11;;;;;;;7.37;4.20;;;;;;;2.68;100.00;102809.91;5093996;28;20202;-72
2021/12/18 04:28:38;;;;;;;7.63;4.07;;;;;;;2.68;100.00;102806.47;5097418;28;20198;-73
2021/12/18 04:31:04;;;;;;;11.50;4.37;;;;;;;2.69;100.00;102808.22;5092987;28;20207;-73
2021/12/18 04:33:31;;;;;;;13.97;4.37;;;;;;;2.69;100.00;102805.63;5096406;28;20198;-73
2021/12/18 04:35:58;;;;;;;11.77;4.57;;;;;;;2.70;100.00;102792.81;5089393;28;20210;-73
2021/12/18 04:38:25;;;;;;;13.93;4.70;;;;;;;2.70;100.00;102789.38;5090418;28;20224;-73
2021/12/18 04:40:52;;;;;;;11.03;4.60;;;;;;;2.71;100.00;102801.44;5088982;28;20222;-72
2021/12/18 04:43:18;;;;;;;9.80;4.40;;;;;;;2.71;100.00;102801.44;5089855;28;20191;-72
2021/12/18 04:45:44;;;;;;;9.13;4.53;;;;;;;2.73;100.00;102804.97;5096777;28;20202;-72
2021/12/18 04:48:11;;;;;;;8.20;4.30;;;;;;;2.72;100.00;102798.91;5092231;28;20202;-73
2021/12/18 04:50:37;;;;;;;10.07;5.00;;;;;;;2.74;100.00;102793.84;5096477;28;20221;-73
2021/12/18 04:53:05;;;;;;;7.70;4.23;;;;;;;2.74;100.00;102798.97;5094074;28;20198;-73
2021/12/18 04:55:31;;;;;;;8.23;4.20;;;;;;;2.72;100.00;102788.59;5095676;28;20200;-73
2021/12/18 04:57:58;;;;;;;11.27;4.63;;;;;;;2.72;100.00;102793.75;5101243;28;20205;-73
2021/12/18 05:00:30;;;;;;;8.77;4.33;;;;;;;2.72;100.00;102795.47;5092711;28;20221;-73
2021/12/18 05:03:01;;;;;;;8.40;4.33;;;;;;;2.71;100.00;102788.53;5094703;28;20198;-73
2021/12/18 05:05:28;;;;;;;9.87;4.70;;;;;;;2.73;100.00;102799.81;5095972;28;20663;-73
2021/12/18 05:07:54;;;;;;;11.80;4.73;;;;;;;2.74;100.00;102792.13;5087951;28;20201;-73
2021/12/18 05:10:22;;;;;;;13.57;4.90;;;;;;;2.75;100.00;102801.63;5091498;28;20217;-73
2021/12/18 05:12:48;;;;;;;13.33;4.87;;;;;;;2.76;100.00;102800.81;5094561;28;20197;-73
2021/12/18 05:15:15;;;;;;;8.10;4.20;;;;;;;2.77;100.00;102799.13;5087749;28;20551;-73
2021/12/18 05:17:41;;;;;;;10.37;4.53;;;;;;;2.79;100.00;102805.19;5092273;28;20812;-73
2021/12/18 05:20:09;;;;;;;8.80;4.97;;;;;;;2.79;100.00;102800.91;5098741;28;20217;-72
2021/12/18 05:22:35;;;;;;;11.27;4.90;;;;;;;2.81;100.00;102808.72;5081988;28;20199;-73
2021/12/18 05:25:02;;;;;;;13.10;5.30;;;;;;;2.85;100.00;102813.19;5098240;27;20197;-72
2021/12/18 05:27:30;;;;;;;15.83;6.47;;;;;;;2.89;100.00;102806.47;5092663;28;20199;-72
2021/12/18 05:29:56;;;;;;;11.00;6.17;;;;;;;2.91;100.00;102808.28;5089287;28;20214;-73
2021/12/18 05:32:22;;;;;;;13.97;5.43;;;;;;;2.93;100.00;102798.03;5088057;28;20683;-72
2021/12/18 05:34:49;;;;;;;10.60;5.50;;;;;;;2.94;100.00;102812.69;5092512;28;20198;-72
2021/12/18 05:37:30;;;;;;;13.40;6.07;;;;;;;2.94;100.00;102798.09;5095209;28;20223;-73
2021/12/18 05:39:57;;;;;;;13.83;5.20;;;;;;;2.96;100.00;102793.00;5085659;28;20226;-73
2021/12/18 05:42:23;;;;;;;9.70;4.33;;;;;;;2.98;100.00;102796.53;5084466;28;20198;-72
2021/12/18 05:44:51;;;;;;;12.83;5.20;;;;;;;2.99;100.00;102804.31;5097458;28;20211;-73
2021/12/18 05:47:19;;;;;;;8.43;4.40;;;;;;;3.00;100.00;102800.03;5089456;28;20197;-73
2021/12/18 05:49:45;;;;;;;10.43;5.07;;;;;;;3.01;100.00;102807.84;5091415;28;20320;-72
2021/12/18 05:52:13;;;;;;;9.37;5.20;;;;;;;3.01;100.00;102799.22;5097315;28;20197;-73
2021/12/18 05:54:39;;;;;;;11.83;5.60;;;;;;;3.01;100.00;102800.09;5089821;28;20198;-73
2021/12/18 05:57:07;;;;;;;12.70;5.60;;;;;;;3.02;100.00;102808.69;5089360;28;20214;-72
2021/12/18 05:59:34;;;;;;;10.67;4.67;;;;;;;3.03;100.00;102800.16;5094715;28;20716;-72
2021/12/18 06:02:02;;;;;;;9.47;4.50;;;;;;;3.02;100.00;102795.81;5082385;28;20210;-73
2021/12/18 06:04:29;;;;;;;10.87;5.03;;;;;;;3.03;100.00;102793.31;5093321;28;20199;-73
2021/12/18 06:07:03;;;;;;;12.10;4.50;;;;;;;3.05;100.00;102797.66;5090191;28;20560;-73
2021/12/18 06:09:30;;;;;;;10.33;5.53;;;;;;;3.02;100.00;102806.13;5091431;28;20239;-73
2021/12/18 06:11:57;;;;;;;6.87;3.83;;;;;;;3.00;100.00;102805.19;5088101;28;20613;-73
2021/12/18 06:14:24;;;;;;;6.13;3.40;;;;;;;2.98;100.00;102801.69;5087877;28;20791;-72
2021/12/18 06:16:50;;;;;;;7.53;3.40;;;;;;;3.00;100.00;102797.47;5087373;28;20615;-72
2021/12/18 06:19:18;;;;;;;4.40;2.57;;;;;;;3.00;100.00;102794.88;5069355;28;20595;-73
2021/12/18 06:21:44;;;;;;;4.57;2.80;;;;;;;2.99;100.00;102801.75;5095601;28;20205;-73
2021/12/18 06:24:11;;;;;;;3.63;2.30;;;;;;;2.98;100.00;102796.53;5082103;28;20204;-72
2021/12/18 06:26:37;;;;;;;2.67;1.70;;;;;;;2.97;100.00;102800.81;5094307;28;20201;-72
2021/12/18 06:29:04;;;;;;;2.70;1.97;;;;;;;2.97;100.00;102805.97;5090091;28;20262;-73
2021/12/18 06:31:30;;;;;;;2.83;2.13;;;;;;;2.96;100.00;102793.00;5087065;28;20236;-73
2021/12/18 06:33:57;;;;;;;3.70;2.10;;;;;;;2.96;100.00;102793.88;5090642;28;20198;-73
2021/12/18 06:36:24;;;;;;;5.57;2.30;;;;;;;2.95;100.00;102793.81;5092733;28;20222;-73
2021/12/18 06:38:51;;;;;;;5.07;2.00;;;;;;;2.96;100.00;102795.59;5084852;28;20198;-73
2021/12/18 06:41:18;;;;;;;1.73;1.57;;;;;;;2.94;100.00;102795.53;5092835;28;20221;-73
2021/12/18 06:43:45;;;;;;;3.73;2.00;;;;;;;2.94;100.00;102792.06;5091635;28;20201;-73
2021/12/18 06:46:11;;;;;;;3.27;2.00;;;;;;;2.93;100.00;102780.88;5092201;28;20576;-73
2021/12/18 06:48:38;;;;;;;2.37;1.60;;;;;;;2.94;100.00;102777.47;5087498;28;20678;-73
2021/12/18 06:51:04;;;;;;;2.00;1.60;;;;;;;2.93;100.00;102772.25;5091478;28;20220;-73
2021/12/18 06:53:32;;;;;;;3.83;1.90;;;;;;;2.94;100.00;102779.19;5085021;28;20205;-72
2021/12/18 06:55:59;;;;;;;2.37;1.83;;;;;;;2.93;100.00;102773.13;5091695;28;20201;-73
2021/12/18 06:58:25;;;;;;;3.43;1.60;;;;;;;2.95;100.00;102776.66;5094345;28;20233;-72
2021/12/18 07:00:53;;;;;;;4.07;1.93;;;;;;;2.95;100.00;102770.63;5099865;28;20580;-73
2021/12/18 07:03:20;;;;;;;2.70;2.00;;;;;;;2.98;100.00;102778.47;5094699;28;20256;-72
2021/12/18 07:05:46;;;;;;;4.10;2.10;;;;;;;2.98;100.00;102776.78;5090428;28;20682;-72
2021/12/18 07:08:13;;;;;;;3.93;2.43;;;;;;;2.99;100.00;102768.25;5096046;28;20201;-72
2021/12/18 07:10:41;;;;;;;3.37;2.33;;;;;;;3.02;100.00;102775.19;5091306;28;20309;-73
2021/12/18 07:13:07;;;;;;;4.03;2.60;;;;;;;3.04;100.00;102776.13;5092171;28;20187;-73
2021/12/18 07:15:33;;;;;;;3.67;2.57;;;;;;;3.06;100.00;102773.63;5094958;28;20740;-73
2021/12/18 07:18:00;;;;;;;5.77;2.90;;;;;;;3.07;100.00;102773.69;5075674;28;20253;-73
2021/12/18 07:20:27;;;;;;;4.50;2.83;;;;;;;3.09;100.00;102769.47;5085292;28;20222;-73
2021/12/18 07:22:54;;;;;;;5.77;2.90;;;;;;;3.12;100.00;102776.44;5073738;28;20202;-73
2021/12/18 07:25:20;;;;;;;3.30;2.13;;;;;;;3.14;100.00;102778.25;5081893;28;20202;-73
2021/12/18 07:27:48;;;;;;;4.70;2.80;;;;;;;3.14;100.00;102764.50;5093938;28;20195;-73
2021/12/18 07:30:15;;;;;;;4.90;3.40;;;;;;;3.14;100.00;102767.94;5081950;28;20222;-73
2021/12/18 07:32:42;;;;;;;5.37;3.50;;;;;;;3.16;100.00;102768.88;5090913;28;20205;-73
2021/12/18 07:35:10;;;;;;;5.03;3.00;;;;;;;3.16;100.00;102766.28;5084265;28;20222;-72
2021/12/18 07:37:37;;;;;;;7.10;2.87;;;;;;;3.19;100.00;102771.59;5082129;28;20221;-73
2021/12/18 07:40:04;;;;;;;4.83;3.00;;;;;;;3.21;100.00;102769.94;5086482;27;20584;-73
2021/12/18 07:42:31;;;;;;;4.37;2.90;;;;;;;3.24;100.00;102771.78;5096613;28;20200;-72
2021/12/18 07:44:59;;;;;;;5.80;3.03;;;;;;;3.24;100.00;102764.03;5089497;28;20194;-73
2021/12/18 07:47:25;;;;;;;5.83;2.83;;;;;;;3.28;100.00;102770.19;5091862;28;20232;-73
2021/12/18 07:49:52;;;;;;;4.43;3.27;;;;;;;3.28;100.00;102763.31;5090754;28;20222;-73
2021/12/18 07:52:18;;;;;;;4.73;2.93;;;;;;;3.31;100.00;102763.44;5084345;28;20209;-73
2021/12/18 07:54:45;;;;;;;4.27;2.53;;;;;;;3.33;100.00;102760.94;5087368;28;20732;-72
2021/12/18 07:57:12;;;;;;;4.13;2.80;;;;;;;3.36;100.00;102753.28;5077615;28;20213;-72
2021/12/18 07:59:38;;;;;;;3.80;2.40;;;;;;;3.35;100.00;102754.13;5089918;28;20220;-73
2021/12/18 08:02:06;;;;;;;4.37;2.03;;;;;;;3.38;100.00;102751.66;5086868;27;20203;-73
2021/12/18 08:04:33;;;;;;;2.90;2.30;;;;;;;3.40;100.00;102761.19;5093331;28;20577;-73
2021/12/18 08:06:59;;;;;;;2.83;2.27;;;;;;;3.40;100.00;102756.03;5090778;28;20201;-73
2021/12/18 08:09:26;;;;;;;3.27;1.90;;;;;;;3.42;100.00;102753.53;5092510;28;20211;-72
2021/12/18 08:11:52;;;;;;;2.70;2.13;;;;;;;3.45;100.00;102752.75;5095058;28;20197;-72
2021/12/18 08:14:18;;;;;;;3.83;2.00;;;;;;;3.46;100.00;102747.66;5090116;28;20201;-72
2021/12/18 08:16:47;;;;;;;4.37;2.97;;;;;;;3.46;100.00;102752.81;5100945;28;20225;-72
2021/12/18 08:19:15;;;;;;;3.97;2.30;;;;;;;3.50;100.00;102757.28;5090105;28;20193;-73
2021/12/18 08:21:41;;;;;;;2.90;2.30;;;;;;;3.51;100.00;102756.44;5085113;28;20212;-72
2021/12/18 08:24:07;;;;;;;3.33;2.13;;;;;;;3.56;100.00;102761.78;5098947;28;20223;-73
2021/12/18 08:26:34;;;;;;;3.20;1.67;;;;;;;3.57;100.00;102750.63;5086309;27;20195;-72
2021/12/18 08:29:00;;;;;;;3.70;2.63;;;;;;;3.58;100.00;102761.00;5089256;28;20196;-72
2021/12/18 08:31:27;;;;;;;4.20;3.00;;;;;;;3.62;100.00;102753.38;5096006;28;20232;-72
2021/12/18 08:33:53;;;;;;;4.27;2.67;;;;;;;3.62;100.00;102743.06;5087293;28;20231;-73
2021/12/18 08:36:21;;;;;;;4.27;3.00;;;;;;;3.65;100.00;102738.91;5090627;27;20198;-73
2021/12/18 08:38:47;;;;;;;3.47;2.30;;;;;;;3.66;100.00;102744.91;5090947;28;20232;-73
2021/12/18 08:41:16;;;;;;;2.23;1.93;;;;;;;3.68;100.00;102738.16;5089270;28;20224;-73
2021/12/18 08:43:42;;;;;;;2.53;2.10;;;;;;;3.70;100.00;102736.50;5092330;28;20665;-72
2021/12/18 08:46:09;;;;;;;2.47;1.70;;;;;;;3.71;100.00;102735.66;5089123;28;20204;-73
2021/12/18 08:48:35;;;;;;;3.27;2.83;;;;;;;3.76;100.00;102728.94;5087455;28;20206;-72
2021/12/18 08:51:02;;;;;;;2.93;1.80;;;;;;;3.75;100.00;102740.13;5083937;28;20253;-73
2021/12/18 08:53:29;;;;;;;2.80;2.23;;;;;;;3.78;100.00;102733.38;5082491;28;20797;-73
2021/12/18 08:55:56;;;;;;;3.40;2.10;;;;;;;3.80;100.00;102738.59;5086205;28;20566;-73
2021/12/18 08:58:22;;;;;;;2.50;2.00;;;;;;;3.83;100.00;102738.66;5088966;28;20425;-73
2021/12/18 09:00:48;;;;;;;1.97;1.70;;;;;;;3.84;100.00;102731.81;5082370;28;20222;-73
2021/12/18 09:03:15;;;;;;;2.90;1.87;;;;;;;3.85;100.00;102731.84;5078894;28;20207;-72
2021/12/18 09:05:42;;;;;;;2.10;1.90;;;;;;;3.88;100.00;102731.97;5081951;28;20213;-72
2021/12/18 09:08:08;;;;;;;2.90;2.53;;;;;;;3.90;100.00;102727.72;5094182;28;20193;-73
2021/12/18 09:10:37;;;;;;;3.20;2.30;;;;;;;3.88;100.00;102725.94;5094743;28;20656;-72
2021/12/18 09:13:03;;;;;;;2.50;1.60;;;;;;;3.91;100.00;102729.50;5092910;28;20213;-73
2021/12/18 09:15:30;;;;;;;2.87;2.33;;;;;;;3.94;100.00;102729.63;5092323;28;20208;-73
2021/12/18 09:17:56;;;;;;;3.87;3.13;;;;;;;3.95;100.00;102722.75;5094440;28;20218;-73
2021/12/18 09:20:23;;;;;;;4.17;2.40;;;;;;;3.95;100.00;102726.19;5091477;28;20217;-72
2021/12/18 09:22:49;;;;;;;2.60;2.30;;;;;;;3.98;100.00;102715.13;5096464;28;20198;-73
2021/12/18 09:25:16;;;;;;;4.17;2.30;;;;;;;3.98;100.00;102715.97;5098707;28;20201;-72
2021/12/18 09:27:44;;;;;;;2.53;1.97;;;;;;;4.00;100.00;102705.72;5092098;28;20194;-73
2021/12/18 09:30:13;;;;;;;3.77;3.40;;;;;;;4.01;100.00;102699.75;5095694;28;20567;-73
2021/12/18 09:32:40;;;;;;;5.10;4.60;;;;;;;4.05;100.00;102704.16;5088920;28;20581;-73
2021/12/18 09:35:08;;;;;;;4.50;3.73;;;;;;;4.06;100.00;102707.63;5090726;28;20202;-73
2021/12/18 09:37:35;;;;;;;3.53;3.23;;;;;;;4.07;100.00;102704.22;5075070;28;20670;-72
2021/12/18 09:40:02;;;;;;;2.90;2.50;;;;;;;4.05;100.00;102704.16;5082460;28;20225;-73
2021/12/18 09:42:28;;;;;;;2.73;2.20;;;;;;;4.10;100.00;102701.75;5081958;28;20684;-73
2021/12/18 09:44:56;;;;;;;2.83;2.43;;;;;;;4.10;100.00;102701.75;5080041;28;20200;-73
2021/12/18 09:47:22;;;;;;;3.10;2.30;;;;;;;4.11;100.00;102700.91;5095369;28;20679;-73
2021/12/18 09:49:49;;;;;;;4.00;2.50;;;;;;;4.12;100.00;102694.94;5086126;28;20218;-73
2021/12/18 09:52:16;;;;;;;3.00;2.30;;;;;;;4.12;100.00;102690.63;5088532;28;20216;-72
2021/12/18 09:54:42;;;;;;;3.50;2.70;;;;;;;4.13;100.00;102686.34;5070544;28;20552;-73
2021/12/18 09:57:09;;;;;;;4.03;2.33;;;;;;;4.14;100.00;102677.78;5079927;28;20199;-73
2021/12/18 09:59:36;;;;;;;7.80;6.00;;;;;;;4.15;100.00;102683.00;5076930;28;20237;-73
2021/12/18 10:02:04;;;;;;;5.47;3.00;;;;;;;4.17;100.00;102681.34;5088099;28;20190;-73
2021/12/18 10:04:33;;;;;;;4.57;3.40;;;;;;;4.21;100.00;102671.13;5081289;28;20201;-73
2021/12/18 10:07:02;;;;;;;4.50;3.17;;;;;;;4.23;100.00;102674.63;5093965;28;20670;-73
2021/12/18 10:09:35;;;;;;;4.57;2.80;;;;;;;4.24;100.00;102671.19;5081558;28;20217;-73
2021/12/18 10:12:05;;;;;;;8.33;6.00;;;;;;;4.25;100.00;102675.56;5073993;28;20213;-73
2021/12/18 10:14:35;;;;;;;4.60;2.70;;;;;;;4.28;100.00;102673.06;5074145;28;20209;-72
2021/12/18 10:17:04;;;;;;;4.37;3.13;;;;;;;4.28;100.00;102668.78;5072612;28;20201;-73
2021/12/18 10:19:31;;;;;;;4.33;2.70;;;;;;;4.29;100.00;102664.47;5077588;28;20233;-72
2021/12/18 10:22:00;;;;;;;3.20;2.50;;;;;;;4.30;100.00;102651.63;5081946;28;20194;-73
2021/12/18 10:24:28;;;;;;;5.67;3.73;;;;;;;4.33;100.00;102650.88;5081280;28;20197;-73
2021/12/18 10:26:55;;;;;;;4.77;2.73;;;;;;;4.33;100.00;102649.16;5083431;28;20391;-72
2021/12/18 10:29:30;;;;;;;4.83;2.83;;;;;;;4.36;100.00;102640.59;5078070;28;20297;-73
2021/12/18 10:32:03;;;;;;;4.30;2.93;;;;;;;4.37;100.00;102642.38;5079814;28;20201;-73
2021/12/18 10:34:32;;;;;;;4.30;3.13;;;;;;;4.41;100.00;102641.63;5082754;28;20201;-73
2021/12/18 10:37:14;;;;;;;4.20;3.30;;;;;;;4.43;100.00;102642.53;5082207;28;20206;-73
2021/12/18 10:39:44;;;;;;;3.67;2.73;;;;;;;4.42;100.00;102638.22;5086867;28;20230;-73
2021/12/18 10:42:19;;;;;;;2.90;2.50;;;;;;;4.43;100.00;102637.38;5078580;28;20213;-73
2021/12/18 10:44:59;;;;;;;3.63;2.90;;;;;;;4.47;100.00;102634.09;5086519;28;20201;-73
2021/12/18 10:47:26;;;;;;;4.53;3.10;;;;;;;4.44;100.00;102631.41;5082742;28;20200;-72
2021/12/18 10:49:54;;;;;;;3.90;2.90;;;;;;;4.46;100.00;102628.88;5084258;28;20213;-73
2021/12/18 10:52:36;;;;;;;5.07;3.27;;;;;;;4.44;100.00;102628.81;5077243;28;20212;-73
2021/12/18 10:55:04;;;;;;;5.60;3.50;;;;;;;4.44;100.00;102627.94;5081248;28;20201;-73
2021/12/18 10:57:31;;;;;;;4.93;3.30;;;;;;;4.45;100.00;102624.50;5084092;28;20198;-73
2021/12/18 10:59:58;;;;;;;5.53;3.10;;;;;;;4.43;100.00;102615.84;5086947;28;20214;-73
2021/12/18 11:02:27;;;;;;;5.10;3.63;;;;;;;4.47;100.00;102612.56;5079230;28;20282;-72
2021/12/18 11:05:13;;;;;;;6.60;4.10;;;;;;;4.47;100.00;102605.66;5089031;28;20201;-73
2021/12/18 11:07:43;;;;;;;6.83;3.77;;;;;;;4.48;100.00;102604.81;5082359;28;20237;-73
2021/12/18 11:10:39;;;;;;;6.20;3.50;;;;;;;4.45;100.00;102604.75;5087323;28;20232;-73
2021/12/18 11:15:49;;;;;;;7.03;4.13;;;;;;;4.45;100.00;102602.16;5093629;28;20714;-72
2021/12/18 11:18:16;;;;;;;6.37;4.17;;;;;;;4.42;100.00;102593.44;5085882;28;20214;-73
2021/12/18 11:20:44;;;;;;;10.13;5.50;;;;;;;4.44;100.00;102590.06;5085209;28;20228;-73
2021/12/18 11:23:11;;;;;;;6.67;5.00;;;;;;;4.43;100.00;102585.72;5090552;28;20198;-73
2021/12/18 11:25:39;;;;;;;8.33;6.10;;;;;;;4.43;100.00;102579.69;5083406;28;20207;-73
2021/12/18 11:28:08;;;;;;;9.40;6.17;;;;;;;4.43;100.00;102582.28;5079619;28;20203;-72
2021/12/18 11:30:35;;;;;;;6.17;4.37;;;;;;;4.44;100.00;102582.31;5088785;28;20211;-73
2021/12/18 11:33:01;;;;;;;6.50;4.57;;;;;;;4.43;100.00;102580.56;5094196;28;20198;-72
2021/12/18 11:35:28;;;;;;;6.73;4.40;;;;;;;4.38;100.00;102581.25;5079249;28;20206;-73
2021/12/18 11:38:01;;;;;;;5.00;3.73;;;;;;;4.38;100.00;102573.50;5097010;28;20461;-73
2021/12/18 11:40:37;;;;;;;5.30;3.30;;;;;;;4.38;100.00;102566.66;5084730;28;20222;-73
2021/12/18 11:43:06;;;;;;;6.93;3.37;;;;;;;4.41;100.00;102571.03;5077689;28;20683;-73
2021/12/18 11:45:35;;;;;;;6.27;3.97;;;;;;;4.39;100.00;102576.13;5083519;28;20202;-72
2021/12/18 11:48:03;;;;;;;5.97;3.50;;;;;;;4.39;100.00;102570.97;5081097;28;20226;-73
2021/12/18 11:50:32;;;;;;;6.10;3.33;;;;;;;4.39;100.00;102564.94;5082538;28;20222;-72
2021/12/18 11:53:04;;;;;;;5.63;3.90;;;;;;;4.42;100.00;102565.91;5087492;28;20186;-72
2021/12/18 11:55:33;;;;;;;5.00;4.13;;;;;;;4.42;100.00;102565.91;5084751;28;20213;-73
2021/12/18 11:58:00;;;;;;;5.93;4.27;;;;;;;4.42;100.00;102555.56;5084903;28;20197;-73
2021/12/18 12:00:44;;;;;;;6.27;3.97;;;;;;;4.46;100.00;102559.13;5081515;28;20222;-73